sensor_id;sensor_type;location;lat;lon;timestamp;pressure;altitude;pressure_sealevel;temperature;humidity
51439;BME280;38816;51.142;-0.974;2024-01-30T00:01:58;100570.06;;;9.87;100.00
51439;BME280;38816;51.142;-0.974;2024-01-30T00:04:24;100572.53;;;9.84;100.00
51439;BME280;38816;51.142;-0.974;2024-01-30T00:06:50;100579.34;;;9.82;100.00
51439;BME280;38816;51.142;-0.974;2024-01-30T00:09:16;100582.72;;;9.81;100.00
51439;BME280;38816;51.142;-0.974;2024-01-30T00:11:41;100578.41;;;9.80;100.00
51439;BME280;38816;51.142;-0.974;2024-01-30T00:14:07;100574.25;;;9.85;100.00
51439;BME280;38816;51.142;-0.974;2024-01-30T00:16:32;100581.69;;;9.73;100.00
51439;BME280;38816;51.142;-0.974;2024-01-30T00:18:58;100566.94;;;9.66;100.00
51439;BME280;38816;51.142;-0.974;2024-01-30T00:21:23;100565.84;;;9.56;100.00
51439;BME280;38816;51.142;-0.974;2024-01-30T00:23:49;100564.69;;;9.45;100.00
51439;BME280;38816;51.142;-0.974;2024-01-30T00:26:15;100562.75;;;9.36;100.00
51439;BME280;38816;51.142;-0.974;2024-01-30T00:28:41;100567.63;;;9.27;100.00
51439;BME280;38816;51.142;-0.974;2024-01-30T00:31:07;100545.22;;;9.20;100.00
51439;BME280;38816;51.142;-0.974;2024-01-30T00:33:33;100564.75;;;9.15;100.00
51439;BME280;38816;51.142;-0.974;2024-01-30T00:35:58;100557.84;;;9.12;100.00
51439;BME280;38816;51.142;-0.974;2024-01-30T00:38:24;100550.88;;;9.08;100.00
51439;BME280;38816;51.142;-0.974;2024-01-30T00:40:49;100562.81;;;9.06;100.00
51439;BME280;38816;51.142;-0.974;2024-01-30T00:43:15;100571.28;;;9.04;100.00
51439;BME280;38816;51.142;-0.974;2024-01-30T00:45:41;100567.69;;;8.97;100.00
51439;BME280;38816;51.142;-0.974;2024-01-30T00:48:07;100539.25;;;8.90;100.00
51439;BME280;38816;51.142;-0.974;2024-01-30T00:50:32;100540.09;;;8.88;100.00
51439;BME280;38816;51.142;-0.974;2024-01-30T00:52:58;100530.66;;;8.87;100.00
51439;BME280;38816;51.142;-0.974;2024-01-30T00:55:23;100535.72;;;8.86;100.00
51439;BME280;38816;51.142;-0.974;2024-01-30T00:57:49;100550.91;;;8.78;100.00
51439;BME280;38816;51.142;-0.974;2024-01-30T01:00:14;100551.72;;;8.77;100.00
51439;BME280;38816;51.142;-0.974;2024-01-30T01:02:43;100540.53;;;8.74;100.00
51439;BME280;38816;51.142;-0.974;2024-01-30T01:05:09;100530.28;;;8.74;100.00
51439;BME280;38816;51.142;-0.974;2024-01-30T01:07:35;100527.72;;;8.74;100.00
51439;BME280;38816;51.142;-0.974;2024-01-30T01:10:00;100535.31;;;8.71;100.00
51439;BME280;38816;51.142;-0.974;2024-01-30T01:12:26;100527.59;;;8.69;100.00
51439;BME280;38816;51.142;-0.974;2024-01-30T01:14:51;100541.22;;;8.68;100.00
51439;BME280;38816;51.142;-0.974;2024-01-30T01:17:17;100531.75;;;8.66;100.00
51439;BME280;38816;51.142;-0.974;2024-01-30T01:19:44;100533.44;;;8.65;100.00
51439;BME280;38816;51.142;-0.974;2024-01-30T01:22:09;100541.06;;;8.63;100.00
51439;BME280;38816;51.142;-0.974;2024-01-30T01:24:35;100533.31;;;8.60;100.00
51439;BME280;38816;51.142;-0.974;2024-01-30T01:27:01;100527.41;;;8.63;100.00
51439;BME280;38816;51.142;-0.974;2024-01-30T01:29:27;100519.72;;;8.63;100.00
51439;BME280;38816;51.142;-0.974;2024-01-30T01:31:55;100530.81;;;8.63;100.00
51439;BME280;38816;51.142;-0.974;2024-01-30T01:34:21;100527.78;;;8.47;100.00
51439;BME280;38816;51.142;-0.974;2024-01-30T01:36:46;100548.34;;;8.50;100.00
51439;BME280;38816;51.142;-0.974;2024-01-30T01:39:12;100552.88;;;8.58;100.00
51439;BME280;38816;51.142;-0.974;2024-01-30T01:41:38;100547.66;;;8.55;100.00
51439;BME280;38816;51.142;-0.974;2024-01-30T01:44:03;100555.16;;;8.48;100.00
51439;BME280;38816;51.142;-0.974;2024-01-30T01:46:30;100561.03;;;8.45;100.00
51439;BME280;38816;51.142;-0.974;2024-01-30T01:48:58;100558.53;;;8.47;100.00
51439;BME280;38816;51.142;-0.974;2024-01-30T01:51:24;100577.13;;;8.41;100.00
51439;BME280;38816;51.142;-0.974;2024-01-30T01:53:53;100573.16;;;8.51;100.00
51439;BME280;38816;51.142;-0.974;2024-01-30T01:56:19;100573.69;;;8.41;100.00
51439;BME280;38816;51.142;-0.974;2024-01-30T01:58:46;100579.47;;;8.35;100.00
51439;BME280;38816;51.142;-0.974;2024-01-30T02:01:13;100584.56;;;8.33;100.00
51439;BME280;38816;51.142;-0.974;2024-01-30T02:03:41;100600.03;;;8.36;100.00
51439;BME280;38816;51.142;-0.974;2024-01-30T02:06:06;100588.88;;;8.34;100.00
51439;BME280;38816;51.142;-0.974;2024-01-30T02:08:32;100584.56;;;8.33;100.00
51439;BME280;38816;51.142;-0.974;2024-01-30T02:10:58;100585.28;;;8.29;100.00
51439;BME280;38816;51.142;-0.974;2024-01-30T02:13:24;100595.53;;;8.29;100.00
51439;BME280;38816;51.142;-0.974;2024-01-30T02:15:51;100611.66;;;8.27;100.00
51439;BME280;38816;51.142;-0.974;2024-01-30T02:18:17;100608.13;;;8.23;100.00
51439;BME280;38816;51.142;-0.974;2024-01-30T02:20:43;100615.66;;;8.19;100.00
51439;BME280;38816;51.142;-0.974;2024-01-30T02:23:10;100613.03;;;8.16;100.00
51439;BME280;38816;51.142;-0.974;2024-01-30T02:25:40;100606.09;;;8.13;100.00
51439;BME280;38816;51.142;-0.974;2024-01-30T02:28:15;100604.25;;;8.09;100.00
51439;BME280;38816;51.142;-0.974;2024-01-30T02:30:43;100608.47;;;8.07;100.00
51439;BME280;38816;51.142;-0.974;2024-01-30T02:33:08;100590.56;;;8.07;100.00
51439;BME280;38816;51.142;-0.974;2024-01-30T02:35:34;100578.63;;;8.07;100.00
51439;BME280;38816;51.142;-0.974;2024-01-30T02:37:59;100593.91;;;8.06;100.00
51439;BME280;38816;51.142;-0.974;2024-01-30T02:40:25;100602.53;;;8.08;100.00
51439;BME280;38816;51.142;-0.974;2024-01-30T02:42:51;100605.09;;;8.08;100.00
51439;BME280;38816;51.142;-0.974;2024-01-30T02:45:16;100600.72;;;8.05;100.00
51439;BME280;38816;51.142;-0.974;2024-01-30T02:47:42;100611.81;;;8.04;100.00
51439;BME280;38816;51.142;-0.974;2024-01-30T02:50:08;100619.38;;;8.01;100.00
51439;BME280;38816;51.142;-0.974;2024-01-30T02:52:33;100614.25;;;8.01;100.00
51439;BME280;38816;51.142;-0.974;2024-01-30T02:54:59;100612.66;;;8.05;100.00
51439;BME280;38816;51.142;-0.974;2024-01-30T02:57:24;100599.88;;;8.05;100.00
51439;BME280;38816;51.142;-0.974;2024-01-30T02:59:50;100595.63;;;8.05;100.00
51439;BME280;38816;51.142;-0.974;2024-01-30T03:02:15;100605.09;;;8.08;100.00
51439;BME280;38816;51.142;-0.974;2024-01-30T03:04:41;100608.56;;;8.10;100.00
51439;BME280;38816;51.142;-0.974;2024-01-30T03:07:07;100623.28;;;8.16;100.00
51439;BME280;38816;51.142;-0.974;2024-01-30T03:09:33;100620.75;;;8.17;100.00
51439;BME280;38816;51.142;-0.974;2024-01-30T03:11:58;100621.50;;;8.15;100.00
51439;BME280;38816;51.142;-0.974;2024-01-30T03:14:24;100617.28;;;8.15;100.00
51439;BME280;38816;51.142;-0.974;2024-01-30T03:16:50;100622.56;;;8.20;100.00
51439;BME280;38816;51.142;-0.974;2024-01-30T03:19:15;100622.47;;;8.18;100.00
51439;BME280;38816;51.142;-0.974;2024-01-30T03:21:41;100617.47;;;8.21;100.00
51439;BME280;38816;51.142;-0.974;2024-01-30T03:24:06;100614.94;;;8.23;100.00
51439;BME280;38816;51.142;-0.974;2024-01-30T03:26:32;100606.41;;;8.22;100.00
51439;BME280;38816;51.142;-0.974;2024-01-30T03:28:57;100615.81;;;8.23;100.00
51439;BME280;38816;51.142;-0.974;2024-01-30T03:31:23;100629.56;;;8.25;100.00
51439;BME280;38816;51.142;-0.974;2024-01-30T03:33:48;100620.16;;;8.24;100.00
51439;BME280;38816;51.142;-0.974;2024-01-30T03:36:15;100620.28;;;8.29;100.00
51439;BME280;38816;51.142;-0.974;2024-01-30T03:38:41;100625.41;;;8.29;100.00
51439;BME280;38816;51.142;-0.974;2024-01-30T03:41:09;100627.13;;;8.30;100.00
51439;BME280;38816;51.142;-0.974;2024-01-30T03:43:35;100621.19;;;8.31;100.00
51439;BME280;38816;51.142;-0.974;2024-01-30T03:46:01;100623.72;;;8.29;100.00
51439;BME280;38816;51.142;-0.974;2024-01-30T03:48:28;100622.03;;;8.30;100.00
51439;BME280;38816;51.142;-0.974;2024-01-30T03:50:54;100628.75;;;8.28;100.00
51439;BME280;38816;51.142;-0.974;2024-01-30T03:53:19;100632.03;;;8.24;100.00
51439;BME280;38816;51.142;-0.974;2024-01-30T03:55:45;100622.88;;;8.30;100.00
51439;BME280;38816;51.142;-0.974;2024-01-30T03:58:11;100634.03;;;8.32;100.00
51439;BME280;38816;51.142;-0.974;2024-01-30T04:00:36;100632.94;;;8.24;100.00
51439;BME280;38816;51.142;-0.974;2024-01-30T04:03:02;100626.06;;;8.23;100.00
51439;BME280;38816;51.142;-0.974;2024-01-30T04:05:27;100650.03;;;8.25;100.00
51439;BME280;38816;51.142;-0.974;2024-01-30T04:07:53;100650.88;;;8.24;100.00
51439;BME280;38816;51.142;-0.974;2024-01-30T04:10:18;100666.25;;;8.24;100.00
51439;BME280;38816;51.142;-0.974;2024-01-30T04:12:44;100657.63;;;8.22;100.00
51439;BME280;38816;51.142;-0.974;2024-01-30T04:15:10;100665.00;;;8.13;100.00
51439;BME280;38816;51.142;-0.974;2024-01-30T04:17:35;100671.50;;;8.03;100.00
51439;BME280;38816;51.142;-0.974;2024-01-30T04:20:01;100678.09;;;7.97;100.00
51439;BME280;38816;51.142;-0.974;2024-01-30T04:22:26;100688.03;;;7.87;100.00
51439;BME280;38816;51.142;-0.974;2024-01-30T04:24:52;100683.38;;;7.76;100.00
51439;BME280;38816;51.142;-0.974;2024-01-30T04:27:17;100689.38;;;7.76;100.00
51439;BME280;38816;51.142;-0.974;2024-01-30T04:29:43;100685.69;;;7.70;100.00
51439;BME280;38816;51.142;-0.974;2024-01-30T04:32:09;100707.50;;;7.58;100.00
51439;BME280;38816;51.142;-0.974;2024-01-30T04:34:36;100709.31;;;7.61;100.00
51439;BME280;38816;51.142;-0.974;2024-01-30T04:37:02;100702.09;;;7.51;100.00
51439;BME280;38816;51.142;-0.974;2024-01-30T04:39:27;100713.91;;;7.47;100.00
51439;BME280;38816;51.142;-0.974;2024-01-30T04:41:53;100708.28;;;7.33;100.00
51439;BME280;38816;51.142;-0.974;2024-01-30T04:44:18;100721.53;;;7.23;100.00
51439;BME280;38816;51.142;-0.974;2024-01-30T04:46:44;100720.56;;;7.20;100.00
51439;BME280;38816;51.142;-0.974;2024-01-30T04:49:10;100740.84;;;7.15;100.00
51439;BME280;38816;51.142;-0.974;2024-01-30T04:51:36;100731.47;;;7.16;100.00
51439;BME280;38816;51.142;-0.974;2024-01-30T04:54:01;100737.22;;;7.10;100.00
51439;BME280;38816;51.142;-0.974;2024-01-30T04:56:27;100736.31;;;7.08;100.00
51439;BME280;38816;51.142;-0.974;2024-01-30T04:58:52;100748.63;;;6.96;100.00
51439;BME280;38816;51.142;-0.974;2024-01-30T05:01:18;100748.13;;;6.83;100.00
51439;BME280;38816;51.142;-0.974;2024-01-30T05:03:44;100753.41;;;6.88;100.00
51439;BME280;38816;51.142;-0.974;2024-01-30T05:06:09;100747.91;;;6.77;100.00
51439;BME280;38816;51.142;-0.974;2024-01-30T05:08:34;100757.16;;;6.75;100.00
51439;BME280;38816;51.142;-0.974;2024-01-30T05:11:04;100746.25;;;6.79;100.00
51439;BME280;38816;51.142;-0.974;2024-01-30T05:13:30;100763.03;;;6.73;100.00
51439;BME280;38816;51.142;-0.974;2024-01-30T05:15:56;100766.22;;;6.67;100.00
51439;BME280;38816;51.142;-0.974;2024-01-30T05:18:21;100769.16;;;6.76;100.00
51439;BME280;38816;51.142;-0.974;2024-01-30T05:20:47;100789.47;;;6.73;100.00
51439;BME280;38816;51.142;-0.974;2024-01-30T05:23:13;100781.75;;;6.72;100.00
51439;BME280;38816;51.142;-0.974;2024-01-30T05:25:38;100778.88;;;6.64;100.00
51439;BME280;38816;51.142;-0.974;2024-01-30T05:28:04;100787.34;;;6.63;100.00
51439;BME280;38816;51.142;-0.974;2024-01-30T05:30:29;100800.66;;;6.56;100.00
51439;BME280;38816;51.142;-0.974;2024-01-30T05:32:55;100797.44;;;6.60;100.00
51439;BME280;38816;51.142;-0.974;2024-01-30T05:35:20;100821.28;;;6.60;100.00
51439;BME280;38816;51.142;-0.974;2024-01-30T05:37:49;100818.63;;;6.57;100.00
51439;BME280;38816;51.142;-0.974;2024-01-30T05:40:15;100819.94;;;6.69;100.00
51439;BME280;38816;51.142;-0.974;2024-01-30T05:42:41;100817.13;;;6.63;100.00
51439;BME280;38816;51.142;-0.974;2024-01-30T05:45:06;100812.13;;;6.45;100.00
51439;BME280;38816;51.142;-0.974;2024-01-30T05:47:33;100828.31;;;6.45;100.00
51439;BME280;38816;51.142;-0.974;2024-01-30T05:49:58;100824.63;;;6.39;100.00
51439;BME280;38816;51.142;-0.974;2024-01-30T05:52:24;100817.53;;;6.31;100.00
51439;BME280;38816;51.142;-0.974;2024-01-30T05:54:49;100820.75;;;6.27;100.00
51439;BME280;38816;51.142;-0.974;2024-01-30T05:57:14;100822.25;;;6.43;100.00
51439;BME280;38816;51.142;-0.974;2024-01-30T05:59:40;100826.38;;;6.40;100.00
51439;BME280;38816;51.142;-0.974;2024-01-30T06:02:05;100827.66;;;6.49;100.00
51439;BME280;38816;51.142;-0.974;2024-01-30T06:04:31;100830.06;;;6.46;100.00
51439;BME280;38816;51.142;-0.974;2024-01-30T06:06:56;100838.88;;;6.33;100.00
51439;BME280;38816;51.142;-0.974;2024-01-30T06:09:22;100861.47;;;6.24;100.00
51439;BME280;38816;51.142;-0.974;2024-01-30T06:11:47;100850.19;;;6.19;100.00
51439;BME280;38816;51.142;-0.974;2024-01-30T06:14:13;100872.22;;;6.17;100.00
51439;BME280;38816;51.142;-0.974;2024-01-30T06:16:38;100863.53;;;6.33;100.00
51439;BME280;38816;51.142;-0.974;2024-01-30T06:19:04;100874.34;;;6.47;100.00
51439;BME280;38816;51.142;-0.974;2024-01-30T06:21:29;100877.56;;;6.43;100.00
51439;BME280;38816;51.142;-0.974;2024-01-30T06:23:55;100886.03;;;6.42;100.00
51439;BME280;38816;51.142;-0.974;2024-01-30T06:26:21;100877.25;;;6.35;100.00
51439;BME280;38816;51.142;-0.974;2024-01-30T06:28:46;100892.69;;;6.38;100.00
51439;BME280;38816;51.142;-0.974;2024-01-30T06:31:12;100875.59;;;6.36;100.00
51439;BME280;38816;51.142;-0.974;2024-01-30T06:33:37;100895.34;;;6.40;100.00
51439;BME280;38816;51.142;-0.974;2024-01-30T06:36:03;100901.31;;;6.40;100.00
51439;BME280;38816;51.142;-0.974;2024-01-30T06:38:29;100909.09;;;6.43;100.00
51439;BME280;38816;51.142;-0.974;2024-01-30T06:40:55;100910.97;;;6.47;100.00
51439;BME280;38816;51.142;-0.974;2024-01-30T06:43:20;100915.22;;;6.47;100.00
51439;BME280;38816;51.142;-0.974;2024-01-30T06:45:47;100909.28;;;6.48;100.00
51439;BME280;38816;51.142;-0.974;2024-01-30T06:48:12;100911.44;;;6.39;100.00
51439;BME280;38816;51.142;-0.974;2024-01-30T06:50:38;100920.38;;;6.29;100.00
51439;BME280;38816;51.142;-0.974;2024-01-30T06:53:03;100929.00;;;6.31;100.00
51439;BME280;38816;51.142;-0.974;2024-01-30T06:55:29;100940.13;;;6.33;100.00
51439;BME280;38816;51.142;-0.974;2024-01-30T06:57:54;100939.47;;;6.37;100.00
51439;BME280;38816;51.142;-0.974;2024-01-30T07:00:20;100948.97;;;6.40;100.00
51439;BME280;38816;51.142;-0.974;2024-01-30T07:02:45;100950.91;;;6.45;100.00
51439;BME280;38816;51.142;-0.974;2024-01-30T07:05:11;100964.34;;;6.41;100.00
51439;BME280;38816;51.142;-0.974;2024-01-30T07:07:37;100963.59;;;6.44;100.00
51439;BME280;38816;51.142;-0.974;2024-01-30T07:10:02;100961.38;;;6.51;100.00
51439;BME280;38816;51.142;-0.974;2024-01-30T07:12:30;100970.88;;;6.54;100.00
51439;BME280;38816;51.142;-0.974;2024-01-30T07:14:56;100971.94;;;6.40;100.00
51439;BME280;38816;51.142;-0.974;2024-01-30T07:17:21;100984.41;;;6.33;100.00
51439;BME280;38816;51.142;-0.974;2024-01-30T07:19:47;100990.13;;;6.28;100.00
51439;BME280;38816;51.142;-0.974;2024-01-30T07:22:12;101004.53;;;6.45;100.00
51439;BME280;38816;51.142;-0.974;2024-01-30T07:24:42;100993.81;;;6.34;100.00
51439;BME280;38816;51.142;-0.974;2024-01-30T07:27:09;100997.59;;;6.43;100.00
51439;BME280;38816;51.142;-0.974;2024-01-30T07:29:35;101000.75;;;6.37;100.00
51439;BME280;38816;51.142;-0.974;2024-01-30T07:32:00;101001.16;;;6.27;100.00
51439;BME280;38816;51.142;-0.974;2024-01-30T07:34:26;101000.41;;;6.29;100.00
51439;BME280;38816;51.142;-0.974;2024-01-30T07:36:52;101017.91;;;6.40;100.00
51439;BME280;38816;51.142;-0.974;2024-01-30T07:39:18;101018.19;;;6.46;100.00
51439;BME280;38816;51.142;-0.974;2024-01-30T07:41:43;101025.22;;;6.32;100.00
51439;BME280;38816;51.142;-0.974;2024-01-30T07:44:09;101017.94;;;6.59;100.00
51439;BME280;38816;51.142;-0.974;2024-01-30T07:46:35;101033.25;;;6.59;100.00
51439;BME280;38816;51.142;-0.974;2024-01-30T07:49:00;101033.78;;;6.52;100.00
51439;BME280;38816;51.142;-0.974;2024-01-30T07:51:26;101032.03;;;6.51;100.00
51439;BME280;38816;51.142;-0.974;2024-01-30T07:53:53;101046.22;;;6.44;100.00
51439;BME280;38816;51.142;-0.974;2024-01-30T07:56:19;101037.81;;;6.47;100.00
51439;BME280;38816;51.142;-0.974;2024-01-30T07:58:44;101039.63;;;6.49;100.00
51439;BME280;38816;51.142;-0.974;2024-01-30T08:01:10;101051.81;;;6.55;100.00
51439;BME280;38816;51.142;-0.974;2024-01-30T08:03:35;101052.19;;;6.45;100.00
51439;BME280;38816;51.142;-0.974;2024-01-30T08:06:02;101055.44;;;6.60;100.00
51439;BME280;38816;51.142;-0.974;2024-01-30T08:08:28;101062.47;;;6.46;100.00
51439;BME280;38816;51.142;-0.974;2024-01-30T08:10:53;101054.34;;;6.55;100.00
51439;BME280;38816;51.142;-0.974;2024-01-30T08:13:19;101070.63;;;6.57;100.00
51439;BME280;38816;51.142;-0.974;2024-01-30T08:15:44;101064.84;;;6.61;100.00
51439;BME280;38816;51.142;-0.974;2024-01-30T08:18:10;101067.94;;;6.54;100.00
51439;BME280;38816;51.142;-0.974;2024-01-30T08:20:35;101086.03;;;6.58;100.00
51439;BME280;38816;51.142;-0.974;2024-01-30T08:23:01;101093.56;;;6.75;100.00
51439;BME280;38816;51.142;-0.974;2024-01-30T08:25:26;101095.50;;;6.61;100.00
51439;BME280;38816;51.142;-0.974;2024-01-30T08:27:52;101104.63;;;6.56;100.00
51439;BME280;38816;51.142;-0.974;2024-01-30T08:30:17;101099.63;;;6.57;100.00
51439;BME280;38816;51.142;-0.974;2024-01-30T08:32:43;101098.72;;;6.57;100.00
51439;BME280;38816;51.142;-0.974;2024-01-30T08:35:08;101105.50;;;6.56;100.00
51439;BME280;38816;51.142;-0.974;2024-01-30T08:37:34;101108.69;;;6.70;100.00
51439;BME280;38816;51.142;-0.974;2024-01-30T08:39:59;101110.34;;;6.88;100.00
51439;BME280;38816;51.142;-0.974;2024-01-30T08:42:25;101112.41;;;6.77;100.00
51439;BME280;38816;51.142;-0.974;2024-01-30T08:44:51;101109.28;;;6.65;100.00
51439;BME280;38816;51.142;-0.974;2024-01-30T08:47:18;101121.47;;;6.70;100.00
51439;BME280;38816;51.142;-0.974;2024-01-30T08:49:44;101121.63;;;6.73;100.00
51439;BME280;38816;51.142;-0.974;2024-01-30T08:52:12;101133.47;;;6.71;100.00
51439;BME280;38816;51.142;-0.974;2024-01-30T08:54:38;101137.53;;;6.85;100.00
51439;BME280;38816;51.142;-0.974;2024-01-30T08:57:04;101143.28;;;6.81;100.00
51439;BME280;38816;51.142;-0.974;2024-01-30T08:59:30;101144.53;;;6.90;100.00
51439;BME280;38816;51.142;-0.974;2024-01-30T09:01:55;101143.03;;;6.95;100.00
51439;BME280;38816;51.142;-0.974;2024-01-30T09:04:23;101143.22;;;6.80;100.00
51439;BME280;38816;51.142;-0.974;2024-01-30T09:06:50;101144.63;;;6.73;100.00
51439;BME280;38816;51.142;-0.974;2024-01-30T09:09:16;101153.69;;;6.67;100.00
51439;BME280;38816;51.142;-0.974;2024-01-30T09:11:43;101162.34;;;6.70;100.00
51439;BME280;38816;51.142;-0.974;2024-01-30T09:14:08;101162.00;;;6.80;100.00
51439;BME280;38816;51.142;-0.974;2024-01-30T09:16:34;101173.91;;;6.80;100.00
51439;BME280;38816;51.142;-0.974;2024-01-30T09:18:59;101182.31;;;6.97;100.00
51439;BME280;38816;51.142;-0.974;2024-01-30T09:21:25;101178.94;;;6.98;100.00
51439;BME280;38816;51.142;-0.974;2024-01-30T09:23:54;101184.28;;;7.02;100.00
51439;BME280;38816;51.142;-0.974;2024-01-30T09:26:20;101189.75;;;7.10;100.00
51439;BME280;38816;51.142;-0.974;2024-01-30T09:28:46;101198.16;;;7.07;100.00
51439;BME280;38816;51.142;-0.974;2024-01-30T09:31:12;101198.38;;;7.12;100.00
51439;BME280;38816;51.142;-0.974;2024-01-30T09:33:38;101203.63;;;7.15;100.00
51439;BME280;38816;51.142;-0.974;2024-01-30T09:36:05;101203.75;;;7.18;100.00
51439;BME280;38816;51.142;-0.974;2024-01-30T09:38:31;101200.06;;;7.12;100.00
51439;BME280;38816;51.142;-0.974;2024-01-30T09:41:00;101207.75;;;7.12;100.00
51439;BME280;38816;51.142;-0.974;2024-01-30T09:43:28;101204.91;;;7.25;100.00
51439;BME280;38816;51.142;-0.974;2024-01-30T09:45:57;101210.97;;;7.27;100.00
51439;BME280;38816;51.142;-0.974;2024-01-30T09:48:23;101212.72;;;7.28;100.00
51439;BME280;38816;51.142;-0.974;2024-01-30T09:50:50;101219.88;;;7.35;100.00
51439;BME280;38816;51.142;-0.974;2024-01-30T09:53:16;101222.44;;;7.35;100.00
51439;BME280;38816;51.142;-0.974;2024-01-30T09:55:43;101227.25;;;7.29;100.00
51439;BME280;38816;51.142;-0.974;2024-01-30T09:58:09;101229.19;;;7.15;100.00
51439;BME280;38816;51.142;-0.974;2024-01-30T10:00:34;101236.75;;;7.31;100.00
51439;BME280;38816;51.142;-0.974;2024-01-30T10:03:00;101241.06;;;7.32;100.00
51439;BME280;38816;51.142;-0.974;2024-01-30T10:05:31;101255.03;;;7.39;100.00
51439;BME280;38816;51.142;-0.974;2024-01-30T10:07:59;101258.78;;;7.47;100.00
51439;BME280;38816;51.142;-0.974;2024-01-30T10:10:25;101274.84;;;7.63;100.00
51439;BME280;38816;51.142;-0.974;2024-01-30T10:12:51;101265.00;;;7.72;100.00
51439;BME280;38816;51.142;-0.974;2024-01-30T10:15:17;101284.25;;;7.64;100.00
51439;BME280;38816;51.142;-0.974;2024-01-30T10:17:44;101290.41;;;7.67;100.00
51439;BME280;38816;51.142;-0.974;2024-01-30T10:20:10;101290.25;;;7.64;100.00
51439;BME280;38816;51.142;-0.974;2024-01-30T10:22:36;101293.00;;;7.69;100.00
51439;BME280;38816;51.142;-0.974;2024-01-30T10:25:02;101292.34;;;7.73;100.00
51439;BME280;38816;51.142;-0.974;2024-01-30T10:27:28;101289.13;;;7.77;100.00
51439;BME280;38816;51.142;-0.974;2024-01-30T10:29:55;101298.06;;;7.86;100.00
51439;BME280;38816;51.142;-0.974;2024-01-30T10:32:21;101305.28;;;7.95;100.00
51439;BME280;38816;51.142;-0.974;2024-01-30T10:34:47;101302.94;;;8.00;100.00
51439;BME280;38816;51.142;-0.974;2024-01-30T10:37:12;101310.09;;;8.07;100.00
51439;BME280;38816;51.142;-0.974;2024-01-30T10:39:41;101308.31;;;8.06;100.00
51439;BME280;38816;51.142;-0.974;2024-01-30T10:42:15;101320.19;;;8.04;100.00
51439;BME280;38816;51.142;-0.974;2024-01-30T10:44:53;101303.41;;;7.91;100.00
51439;BME280;38816;51.142;-0.974;2024-01-30T10:47:26;101318.66;;;7.88;100.00
51439;BME280;38816;51.142;-0.974;2024-01-30T10:49:52;101319.09;;;7.79;100.00
51439;BME280;38816;51.142;-0.974;2024-01-30T10:52:19;101339.44;;;7.76;100.00
51439;BME280;38816;51.142;-0.974;2024-01-30T10:54:46;101338.25;;;7.70;100.00
51439;BME280;38816;51.142;-0.974;2024-01-30T10:57:13;101348.44;;;7.68;100.00
51439;BME280;38816;51.142;-0.974;2024-01-30T10:59:41;101345.31;;;7.56;100.00
51439;BME280;38816;51.142;-0.974;2024-01-30T11:02:08;101352.63;;;7.66;100.00
51439;BME280;38816;51.142;-0.974;2024-01-30T11:04:38;101350.53;;;7.57;100.00
51439;BME280;38816;51.142;-0.974;2024-01-30T11:07:23;101353.81;;;7.55;100.00
51439;BME280;38816;51.142;-0.974;2024-01-30T11:12:25;101358.75;;;7.52;100.00
51439;BME280;38816;51.142;-0.974;2024-01-30T11:15:10;101360.53;;;7.53;100.00
51439;BME280;38816;51.142;-0.974;2024-01-30T11:20:25;101369.31;;;7.58;100.00
51439;BME280;38816;51.142;-0.974;2024-01-30T11:22:52;101378.44;;;7.53;100.00
51439;BME280;38816;51.142;-0.974;2024-01-30T11:25:22;101374.13;;;7.52;100.00
51439;BME280;38816;51.142;-0.974;2024-01-30T11:27:55;101378.53;;;7.36;100.00
51439;BME280;38816;51.142;-0.974;2024-01-30T11:30:25;101385.09;;;7.31;100.00
51439;BME280;38816;51.142;-0.974;2024-01-30T11:35:25;101381.91;;;7.35;100.00
51439;BME280;38816;51.142;-0.974;2024-01-30T11:37:51;101383.56;;;7.35;100.00
51439;BME280;38816;51.142;-0.974;2024-01-30T11:40:16;101382.75;;;7.36;100.00
51439;BME280;38816;51.142;-0.974;2024-01-30T11:42:42;101386.84;;;7.32;100.00
51439;BME280;38816;51.142;-0.974;2024-01-30T11:45:08;101383.34;;;7.30;100.00
51439;BME280;38816;51.142;-0.974;2024-01-30T11:47:37;101386.03;;;7.33;100.00
51439;BME280;38816;51.142;-0.974;2024-01-30T11:50:04;101394.03;;;7.40;100.00
51439;BME280;38816;51.142;-0.974;2024-01-30T11:52:34;101384.28;;;7.32;100.00
51439;BME280;38816;51.142;-0.974;2024-01-30T11:55:00;101397.53;;;7.42;100.00
51439;BME280;38816;51.142;-0.974;2024-01-30T11:57:27;101397.41;;;7.39;100.00
51439;BME280;38816;51.142;-0.974;2024-01-30T11:59:52;101394.75;;;7.37;100.00
51439;BME280;38816;51.142;-0.974;2024-01-30T12:02:18;101398.34;;;7.41;100.00
51439;BME280;38816;51.142;-0.974;2024-01-30T12:04:44;101399.84;;;7.37;100.00
51439;BME280;38816;51.142;-0.974;2024-01-30T12:07:10;101412.22;;;7.28;100.00
51439;BME280;38816;51.142;-0.974;2024-01-30T12:09:36;101412.63;;;7.19;100.00
51439;BME280;38816;51.142;-0.974;2024-01-30T12:12:01;101408.34;;;7.18;100.00
51439;BME280;38816;51.142;-0.974;2024-01-30T12:14:27;101391.25;;;7.17;100.00
51439;BME280;38816;51.142;-0.974;2024-01-30T12:16:53;101402.50;;;7.21;100.00
51439;BME280;38816;51.142;-0.974;2024-01-30T12:19:25;101403.06;;;7.15;100.00
51439;BME280;38816;51.142;-0.974;2024-01-30T12:21:55;101402.78;;;7.09;100.00
51439;BME280;38816;51.142;-0.974;2024-01-30T12:24:22;101402.78;;;7.09;100.00
51439;BME280;38816;51.142;-0.974;2024-01-30T12:26:48;101414.16;;;7.16;100.00
51439;BME280;38816;51.142;-0.974;2024-01-30T12:29:14;101417.84;;;7.21;100.00
51439;BME280;38816;51.142;-0.974;2024-01-30T12:31:41;101421.63;;;7.29;100.00
51439;BME280;38816;51.142;-0.974;2024-01-30T12:34:07;101425.88;;;7.28;100.00
51439;BME280;38816;51.142;-0.974;2024-01-30T12:36:34;101428.59;;;7.31;100.00
51439;BME280;38816;51.142;-0.974;2024-01-30T12:39:00;101434.88;;;7.38;100.00
51439;BME280;38816;51.142;-0.974;2024-01-30T12:41:26;101441.81;;;7.41;100.00
51439;BME280;38816;51.142;-0.974;2024-01-30T12:43:54;101437.41;;;7.38;100.00